Time;durP1;ratioP1;P1;durP2;ratioP2;P2;SDS_P1;SDS_P2;PMS_P1;PMS_P2;Temp;Humidity;BMP_temperature;BMP_pressure;BME280_temperature;BME280_humidity;BME280_pressure;Samples;Min_cycle;Max_cycle;Signal;HPM_P1;HPM_P2
2023/08/28 00:02:26;;;;;;;;;;;;;;;23.08;78.55;98217.73;221881;182;137651;-67
2023/08/28 00:07:31;;;;;;;21.50;19.30;;;;;;;23.02;78.88;98216.24;221866;182;145941;-64
2023/08/28 00:12:40;;;;;;;22.00;17.60;;;;;;;22.99;79.02;98228.25;221845;178;138741;-63
2023/08/28 00:17:46;;;;;;;22.90;17.40;;;;;;;22.96;79.19;98237.23;221771;182;137682;-63
2023/08/28 00:22:51;;;;;;;21.70;17.50;;;;;;;22.96;79.39;98244.80;221759;182;145365;-63
2023/08/28 00:27:56;;;;;;;;;;;;;;;22.98;79.60;98252.41;221797;181;141872;-63
2023/08/28 00:33:02;;;;;;;21.80;19.00;;;;;;;22.99;79.53;98262.87;221797;182;131854;-67
2023/08/28 00:38:07;;;;;;;24.90;17.70;;;;;;;22.98;79.59;98276.21;223865;182;146025;-66
2023/08/28 00:43:10;;;;;;;26.50;18.20;;;;;;;23.00;79.53;98279.10;223679;182;138971;-65
2023/08/28 00:48:16;;;;;;;29.80;21.90;;;;;;;23.03;79.54;98282.11;223867;182;138898;-65
2023/08/28 00:53:21;;;;;;;36.70;26.80;;;;;;;23.11;79.52;98287.25;223827;182;145727;-61
2023/08/28 00:58:24;;;;;;;40.50;29.40;;;;;;;23.23;79.46;98285.98;223819;182;139076;-59
2023/08/28 01:03:27;;;;;;;35.60;27.40;;;;;;;23.32;79.00;98290.70;223898;182;137483;-59
2023/08/28 01:08:49;;;;;;;35.00;25.50;;;;;;;23.34;78.41;98297.11;223775;181;144944;-60
2023/08/28 01:13:59;;;;;;;32.60;24.00;;;;;;;23.36;78.12;98306.02;223846;181;140720;-60
2023/08/28 01:19:10;;;;;;;32.20;23.60;;;;;;;23.35;77.93;98319.88;223882;182;139833;-60
2023/08/28 01:27:13;;;;;;;26.30;19.60;;;;;;;23.29;77.78;98340.21;220533;193;666821;-64
2023/08/28 01:32:17;;;;;;;22.70;17.40;;;;;;;23.28;77.81;98342.29;222028;181;137567;-63
2023/08/28 01:37:27;;;;;;;22.80;17.20;;;;;;;23.32;77.29;98345.35;221950;181;144125;-59
2023/08/28 01:42:33;;;;;;;19.80;12.40;;;;;;;23.25;76.76;98336.02;221857;181;138888;-60
2023/08/28 01:47:38;;;;;;;12.10;8.70;;;;;;;23.20;75.85;98335.33;221862;181;136833;-59
2023/08/28 01:52:42;;;;;;;11.30;7.90;;;;;;;23.13;75.32;98349.05;221854;181;144902;-62
2023/08/28 01:57:47;;;;;;;6.90;5.60;;;;;;;23.03;75.16;98360.27;221893;181;138782;-65
2023/08/28 02:02:52;;;;;;;4.50;3.70;;;;;;;22.89;74.92;98379.13;221962;181;137789;-63
2023/08/28 02:07:56;;;;;;;3.30;2.60;;;;;;;22.76;73.77;98385.00;221914;181;144410;-62
2023/08/28 02:13:04;;;;;;;2.60;1.30;;;;;;;22.67;72.09;98382.09;222196;181;139619;-61
2023/08/28 02:18:08;;;;;;;2.30;1.20;;;;;;;22.48;70.76;98387.77;222303;181;137683;-61
2023/08/28 02:23:14;;;;;;;2.10;1.00;;;;;;;22.34;70.71;98387.12;222034;181;146792;-64
2023/08/28 02:28:19;;;;;;;1.30;0.70;;;;;;;22.22;70.59;98382.16;221817;182;138870;-65
2023/08/28 02:33:24;;;;;;;1.10;0.40;;;;;;;22.10;70.16;98389.26;221791;181;139360;-63
2023/08/28 02:38:31;;;;;;;0.60;0.30;;;;;;;21.96;69.74;98395.61;221843;182;145862;-63
2023/08/28 02:43:38;;;;;;;1.20;0.60;;;;;;;21.90;69.26;98395.86;221763;182;138949;-63
2023/08/28 02:48:43;;;;;;;1.10;0.90;;;;;;;21.86;68.62;98415.17;221831;182;140954;-63
2023/08/28 02:53:49;;;;;;;3.50;2.70;;;;;;;21.74;67.87;98430.54;221853;182;147275;-66
2023/08/28 02:58:56;;;;;;;20.10;17.90;;;;;;;21.53;67.89;98422.49;221929;183;138955;-66
2023/08/28 03:04:07;;;;;;;6.20;5.20;;;;;;;21.39;68.12;98419.61;221980;182;137265;-63
2023/08/28 03:09:12;;;;;;;2.10;0.90;;;;;;;21.27;68.45;98418.23;221969;181;146705;-63
2023/08/28 03:14:18;;;;;;;52.40;44.10;;;;;;;21.20;68.57;98437.50;221808;182;139666;-62
2023/08/28 03:19:22;;;;;;;3.90;2.70;;;;;;;21.20;69.15;98443.48;221972;182;138660;-62
2023/08/28 03:24:27;;;;;;;2.40;0.70;;;;;;;21.27;69.21;98447.13;221910;182;145821;-62
2023/08/28 03:29:31;;;;;;;2.60;0.70;;;;;;;21.34;69.34;98453.06;221859;182;139952;-62
2023/08/28 03:34:36;;;;;;;2.40;1.20;;;;;;;21.37;68.85;98441.56;222075;181;137397;-65
2023/08/28 03:39:40;;;;;;;1.90;0.60;;;;;;;21.40;69.00;98448.88;221878;182;146140;-64
2023/08/28 03:44:45;;;;;;;2.30;0.60;;;;;;;21.43;68.76;98456.98;221865;182;139459;-63
2023/08/28 03:49:50;;;;;;;63.10;56.50;;;;;;;21.44;68.88;98464.45;221687;182;136772;-63
2023/08/28 03:54:56;;;;;;;109.20;81.80;;;;;;;21.43;68.85;98481.29;221906;182;147490;-64
2023/08/28 04:00:05;;;;;;;4.60;3.00;;;;;;;21.35;69.20;98478.78;221657;182;141542;-63
2023/08/28 04:05:18;;;;;;;1.30;0.90;;;;;;;21.33;69.33;98490.57;221939;182;137607;-64
2023/08/28 04:10:22;;;;;;;0.90;0.60;;;;;;;21.27;69.38;98490.23;221847;182;146785;-60
2023/08/28 04:15:28;;;;;;;1.00;0.50;;;;;;;21.27;69.62;98497.52;221836;182;139089;-63
2023/08/28 04:20:33;;;;;;;2.00;0.50;;;;;;;21.32;69.62;98511.02;221736;182;138002;-60
2023/08/28 04:25:39;;;;;;;1.70;0.70;;;;;;;21.34;69.20;98501.36;221774;183;145829;-61
2023/08/28 04:30:44;;;;;;;1.50;0.60;;;;;;;21.35;69.30;98497.84;221816;182;138651;-66
2023/08/28 04:35:49;;;;;;;1.50;0.60;;;;;;;21.34;69.13;98487.86;221768;182;137891;-65
2023/08/28 04:40:54;;;;;;;1.50;0.60;;;;;;;21.29;69.01;98497.77;221718;183;145883;-62
2023/08/28 04:45:58;;;;;;;1.50;0.60;;;;;;;21.21;69.16;98502.11;221774;183;138776;-63
2023/08/28 04:51:05;;;;;;;1.30;0.70;;;;;;;21.17;69.39;98506.83;221760;183;137139;-61
2023/08/28 04:56:09;;;;;;;1.80;0.50;;;;;;;21.20;69.43;98512.88;221827;182;145555;-61
2023/08/28 05:01:13;;;;;;;1.60;0.50;;;;;;;21.27;69.09;98492.48;221759;182;139010;-62
2023/08/28 05:06:17;;;;;;;2.00;0.80;;;;;;;21.35;69.41;98465.92;221707;181;136926;-62
2023/08/28 05:11:23;;;;;;;2.20;0.60;;;;;;;21.41;69.64;98505.79;221764;182;147381;-61
2023/08/28 05:16:28;;;;;;;4.60;1.70;;;;;;;21.38;70.40;98495.20;221683;182;139322;-64
2023/08/28 05:21:34;;;;;;;3.40;1.10;;;;;;;21.32;71.85;98477.80;221799;182;137047;-60
2023/08/28 05:26:39;;;;;;;;;;;;;;;21.20;72.62;98463.61;221871;182;145828;-62
2023/08/28 05:31:45;;;;;;;2.60;0.80;;;;;;;21.10;73.20;98481.25;221784;182;138944;-63
2023/08/28 05:36:51;;;;;;;2.00;1.00;;;;;;;21.09;73.42;98491.34;221618;182;137298;-63
2023/08/28 05:41:57;;;;;;;4.50;1.20;;;;;;;21.12;73.74;98487.33;221745;182;145696;-61
2023/08/28 05:47:01;;;;;;;2.60;0.90;;;;;;;21.13;73.65;98478.91;221657;182;140566;-62
2023/08/28 05:52:06;;;;;;;2.00;0.90;;;;;;;21.15;73.85;98474.40;221753;182;137192;-65
2023/08/28 05:57:10;;;;;;;2.50;1.00;;;;;;;21.16;73.77;98481.66;221648;182;147298;-68
2023/08/28 06:02:16;;;;;;;2.20;0.90;;;;;;;21.15;73.70;98486.60;221712;179;140424;-61
2023/08/28 06:07:21;;;;;;;2.30;0.90;;;;;;;21.15;73.55;98492.27;221736;182;138501;-62
2023/08/28 06:12:25;;;;;;;1.80;0.80;;;;;;;21.16;73.89;98485.05;221644;182;146108;-62
2023/08/28 06:17:30;;;;;;;1.90;1.10;;;;;;;21.22;73.81;98477.30;221621;182;230624;-61
2023/08/28 06:22:34;;;;;;;1.50;0.80;;;;;;;21.23;73.26;98478.70;221762;182;137003;-61
2023/08/28 06:27:39;;;;;;;3.80;1.00;;;;;;;21.21;72.76;98485.77;221682;178;146565;-62
2023/08/28 06:32:45;;;;;;;3.90;1.00;;;;;;;21.20;72.87;98473.63;221664;182;138990;-62
2023/08/28 06:37:50;;;;;;;1.60;1.10;;;;;;;21.20;73.28;98470.81;221696;182;136669;-63
2023/08/28 06:42:55;;;;;;;2.80;0.80;;;;;;;21.27;74.37;98470.03;221790;178;145578;-63
2023/08/28 06:48:00;;;;;;;2.00;1.00;;;;;;;21.33;72.66;98469.75;221721;182;139026;-62
2023/08/28 06:53:05;;;;;;;1.10;0.60;;;;;;;21.41;72.48;98458.66;221752;182;137032;-65
2023/08/28 06:58:08;;;;;;;7.10;1.30;;;;;;;21.51;73.39;98449.15;221710;182;145903;-64
2023/08/28 07:03:12;;;;;;;6.40;1.10;;;;;;;21.63;73.90;98465.05;221662;182;139295;-63
2023/08/28 07:08:19;;;;;;;120.20;97.00;;;;;;;21.94;72.95;98465.36;221759;183;141177;-64
2023/08/28 07:13:23;;;;;;;2.60;2.30;;;;;;;21.96;72.56;98466.70;221683;183;146107;-62
2023/08/28 07:18:30;;;;;;;1.60;1.00;;;;;;;21.87;72.84;98465.75;221714;182;138536;-63
2023/08/28 07:23:36;;;;;;;2.50;0.90;;;;;;;21.81;73.03;98447.38;221703;182;138643;-64
2023/08/28 07:28:40;;;;;;;3.80;2.20;;;;;;;21.80;73.29;98448.95;221768;182;145765;-60
2023/08/28 07:33:45;;;;;;;1.30;1.00;;;;;;;22.18;73.97;98456.83;221696;179;140157;-61
2023/08/28 07:38:50;;;;;;;2.40;0.90;;;;;;;22.43;72.51;98457.85;221678;184;138928;-60
2023/08/28 07:43:54;;;;;;;3.60;1.10;;;;;;;22.48;72.06;98458.80;221789;182;148446;-60
2023/08/28 07:48:58;;;;;;;1.10;0.70;;;;;;;22.60;71.93;98460.70;221813;182;140460;-63
2023/08/28 07:54:04;;;;;;;4.40;0.80;;;;;;;22.88;70.47;98449.96;221850;182;138886;-61
2023/08/28 07:59:08;;;;;;;44.00;34.50;;;;;;;22.95;69.59;98460.27;221823;182;145669;-64
2023/08/28 08:04:14;;;;;;;1.50;1.30;;;;;;;22.88;68.94;98472.12;221731;182;139043;-64
2023/08/28 08:09:20;;;;;;;2.40;1.00;;;;;;;22.81;68.25;98473.66;221747;182;139173;-64
2023/08/28 08:14:24;;;;;;;3.40;1.10;;;;;;;22.70;68.28;98465.27;221803;182;145773;-64
2023/08/28 08:19:28;;;;;;;2.80;1.40;;;;;;;22.54;68.83;98460.91;221755;182;139314;-64
2023/08/28 08:24:33;;;;;;;3.80;1.30;;;;;;;22.50;67.95;98466.77;221728;182;136815;-63
2023/08/28 08:29:39;;;;;;;4.50;1.60;;;;;;;22.43;67.29;98468.37;221840;183;145888;-63
2023/08/28 08:34:45;;;;;;;2.20;1.40;;;;;;;22.39;67.30;98462.69;221848;182;140821;-63
2023/08/28 08:39:50;;;;;;;3.00;1.30;;;;;;;22.36;67.40;98454.05;221777;182;136639;-64
2023/08/28 08:44:56;;;;;;;;;;;;;;;22.23;67.47;98450.70;221728;182;145462;-64
2023/08/28 08:50:06;;;;;;;1.70;1.40;;;;;;;22.11;67.53;98440.73;221789;182;138689;-64
2023/08/28 08:55:20;;;;;;;4.10;1.90;;;;;;;22.07;67.39;98439.58;221703;182;139926;-64
2023/08/28 09:00:26;;;;;;;2.00;1.50;;;;;;;21.98;67.50;98437.72;221733;182;147487;-65
2023/08/28 09:05:31;;;;;;;2.80;1.90;;;;;;;21.92;67.69;98439.67;221770;182;139277;-63
2023/08/28 09:10:36;;;;;;;3.00;2.10;;;;;;;21.99;68.08;98436.39;221773;183;137240;-65
2023/08/28 09:15:41;;;;;;;2.90;2.10;;;;;;;22.10;67.94;98437.48;221720;183;145705;-65
2023/08/28 09:21:09;;;;;;;3.20;2.30;;;;;;;22.15;67.40;98437.86;221598;183;138677;-64
2023/08/28 09:26:21;;;;;;;3.70;2.60;;;;;;;22.15;67.16;98437.52;221717;182;139231;-65
2023/08/28 09:31:34;;;;;;;4.40;2.70;;;;;;;22.13;66.76;98438.80;221641;182;146286;-65
2023/08/28 09:36:42;;;;;;;4.80;2.80;;;;;;;22.06;66.87;98433.14;221643;182;140912;-65
2023/08/28 09:41:49;;;;;;;4.50;2.90;;;;;;;22.03;66.91;98434.66;221661;182;136734;-62
2023/08/28 09:46:55;;;;;;;5.90;3.60;;;;;;;22.06;67.13;98436.63;221726;183;145571;-65
2023/08/28 09:52:00;;;;;;;4.70;3.90;;;;;;;22.09;67.44;98429.59;221649;182;139008;-66
2023/08/28 09:57:17;;;;;;;5.00;4.50;;;;;;;22.12;67.56;98424.39;221757;182;138245;-64
2023/08/28 10:02:27;;;;;;;6.00;5.40;;;;;;;22.13;67.57;98419.69;221677;183;147678;-62
2023/08/28 10:07:32;;;;;;;8.00;6.10;;;;;;;22.11;67.65;98421.55;221677;182;140329;-65
2023/08/28 10:12:40;;;;;;;7.70;6.90;;;;;;;22.10;67.39;98414.48;221807;183;138162;-64
2023/08/28 10:17:48;;;;;;;10.50;6.90;;;;;;;22.09;67.16;98406.41;221593;183;147530;-62
2023/08/28 10:22:52;;;;;;;7.90;6.40;;;;;;;22.13;67.24;98399.98;221665;183;139121;-64
2023/08/28 10:27:58;;;;;;;8.50;6.70;;;;;;;22.19;67.71;98397.64;221723;182;137064;-65
2023/08/28 10:33:08;;;;;;;6.90;6.20;;;;;;;22.32;67.04;98393.61;221707;182;147993;-64
2023/08/28 10:38:16;;;;;;;9.70;5.90;;;;;;;22.39;66.89;98394.55;221633;182;138565;-64
2023/08/28 10:43:21;;;;;;;8.50;6.00;;;;;;;22.43;67.01;98384.45;221763;182;138140;-65
2023/08/28 10:48:28;;;;;;;7.10;6.20;;;;;;;22.46;66.66;98375.48;221637;182;149083;-64
2023/08/28 10:53:33;;;;;;;8.20;7.40;;;;;;;22.45;66.59;98380.96;221817;182;138870;-63
2023/08/28 10:58:38;;;;;;;7.60;6.30;;;;;;;22.46;66.43;98373.59;221701;182;138210;-62
2023/08/28 11:03:56;;;;;;;8.30;6.50;;;;;;;22.48;66.42;98375.04;221709;182;148034;-62
2023/08/28 11:09:33;;;;;;;32.20;26.00;;;;;;;22.58;66.53;98380.98;221714;182;141308;-61
2023/08/28 11:14:40;;;;;;;6.80;6.10;;;;;;;22.72;66.03;98370.51;221621;182;138852;-64
2023/08/28 11:19:56;;;;;;;9.50;6.10;;;;;;;22.80;66.10;98369.04;221608;183;148464;-62
2023/08/28 11:25:04;;;;;;;6.10;5.50;;;;;;;23.22;66.53;98363.98;221752;182;138636;-61
2023/08/28 11:30:12;;;;;;;6.90;5.20;;;;;;;23.54;65.06;98359.05;221726;182;139543;-59
2023/08/28 11:35:18;;;;;;;7.90;5.00;;;;;;;23.76;63.81;98366.09;221636;182;147410;-60
2023/08/28 11:40:25;;;;;;;5.70;4.80;;;;;;;23.80;63.36;98375.15;221678;182;139399;-62
2023/08/28 11:45:29;;;;;;;5.40;4.70;;;;;;;23.81;62.97;98368.39;221686;182;138054;-61
2023/08/28 11:50:35;;;;;;;4.80;4.20;;;;;;;23.87;62.92;98355.09;221663;182;149129;-61
2023/08/28 11:55:40;;;;;;;;;;;;;;;23.87;62.67;98352.80;221604;182;139138;-61
2023/08/28 12:00:48;;;;;;;7.10;3.60;;;;;;;23.79;62.83;98348.81;221825;182;133031;-63
2023/08/28 12:06:11;;;;;;;5.60;3.90;;;;;;;23.77;62.82;98351.67;221548;182;147303;-62
2023/08/28 12:11:18;;;;;;;14.70;9.50;;;;;;;23.68;62.87;98350.20;221653;183;139076;-62
2023/08/28 12:16:24;;;;;;;5.80;3.50;;;;;;;23.69;63.14;98347.50;221668;182;138243;-60
2023/08/28 12:21:37;;;;;;;4.80;2.70;;;;;;;23.71;63.28;98343.02;221842;182;147675;-62
2023/08/28 12:26:43;;;;;;;6.70;2.40;;;;;;;23.76;63.32;98337.98;221672;183;139948;-59
2023/08/28 12:31:48;;;;;;;4.20;2.70;;;;;;;23.83;63.71;98335.50;221867;183;137003;-60
2023/08/28 12:37:03;;;;;;;7.80;2.90;;;;;;;23.89;63.75;98337.14;221795;182;147821;-60
2023/08/28 12:42:12;;;;;;;174.10;136.60;;;;;;;23.91;64.12;98335.77;221851;183;140415;-63
2023/08/28 12:47:18;;;;;;;9.50;7.10;;;;;;;23.81;63.41;98339.58;221866;183;138566;-63
2023/08/28 12:52:21;;;;;;;5.20;3.20;;;;;;;23.62;63.69;98322.02;221851;179;148742;-63
2023/08/28 12:57:26;;;;;;;5.50;3.00;;;;;;;23.48;63.91;98321.02;221769;182;140507;-62
2023/08/28 13:25:56;;;;;;;3.80;3.40;;;;;;;23.25;66.49;98290.05;220623;191;668935;-64
2023/08/28 13:31:01;;;;;;;8.10;4.00;;;;;;;23.17;66.87;98293.73;221420;187;137528;-63
2023/08/28 13:36:07;;;;;;;6.30;3.20;;;;;;;23.08;67.14;98292.13;221539;187;144915;-62
2023/08/28 13:41:10;;;;;;;19.90;12.50;;;;;;;23.02;68.19;98289.52;221794;185;275360;-63
2023/08/28 13:46:14;;;;;;;98.10;83.00;;;;;;;22.94;68.44;98284.33;221824;185;138359;-64
2023/08/28 13:51:21;;;;;;;7.80;6.30;;;;;;;22.83;69.19;98280.61;221897;185;144069;-62
2023/08/28 13:56:26;;;;;;;9.10;5.20;;;;;;;22.80;70.05;98278.28;221871;181;139050;-62
2023/08/28 14:01:33;;;;;;;6.40;4.20;;;;;;;22.73;70.62;98282.05;221798;184;137472;-60
2023/08/28 14:06:37;;;;;;;5.20;4.00;;;;;;;22.67;71.11;98287.08;221800;185;143639;-60
2023/08/28 14:11:43;;;;;;;188.30;166.30;;;;;;;22.63;71.49;98290.15;221810;185;139460;-60
2023/08/28 14:16:50;;;;;;;14.10;8.00;;;;;;;22.67;72.27;98279.14;221753;185;138054;-60
2023/08/28 14:21:56;;;;;;;;;;;;;;;23.08;72.40;98268.04;221642;185;146049;-60
2023/08/28 15:26:00;;;;;;;8.40;5.70;;;;;;;23.09;72.42;98220.23;220429;192;688514;-64
2023/08/28 15:31:05;;;;;;;7.10;4.00;;;;;;;22.95;72.54;98206.27;221777;184;136983;-65
2023/08/28 15:36:11;;;;;;;8.20;4.40;;;;;;;22.93;72.72;98204.71;221764;183;144025;-65
2023/08/28 15:41:17;;;;;;;;;;;;;;;22.94;72.71;98199.86;221848;182;139103;-63
2023/08/28 15:46:24;;;;;;;6.80;4.20;;;;;;;22.85;72.59;98205.83;221833;183;129764;-63
2023/08/28 15:51:30;;;;;;;8.40;4.40;;;;;;;22.74;73.03;98199.59;221694;183;145672;-63
2023/08/28 15:56:34;;;;;;;11.40;4.40;;;;;;;22.70;73.25;98188.95;221736;183;139672;-64
2023/08/28 16:01:38;;;;;;;8.20;4.30;;;;;;;22.64;73.60;98181.66;221815;182;137210;-63
2023/08/28 16:06:43;;;;;;;102.70;83.30;;;;;;;22.62;73.69;98181.30;221933;178;145280;-65
2023/08/28 16:11:52;;;;;;;25.90;18.60;;;;;;;22.66;74.11;98177.45;221699;183;138821;-64
2023/08/28 16:16:57;;;;;;;9.60;5.40;;;;;;;22.71;74.07;98166.95;221982;181;138372;-64
2023/08/28 16:22:02;;;;;;;12.90;6.10;;;;;;;22.63;74.29;98163.25;221775;182;146520;-62
2023/08/28 16:27:08;;;;;;;9.10;4.80;;;;;;;22.54;74.54;98165.80;221777;182;140000;-63
2023/08/28 16:32:13;;;;;;;16.20;10.80;;;;;;;22.46;75.14;98161.24;221706;182;141432;-64
2023/08/28 16:37:19;;;;;;;17.80;8.60;;;;;;;22.50;75.24;98156.23;221772;183;146991;-64
2023/08/28 16:42:24;;;;;;;14.20;5.20;;;;;;;22.56;75.88;98152.25;221712;182;139278;-64
2023/08/28 16:47:29;;;;;;;62.60;48.10;;;;;;;22.70;75.38;98152.42;221634;179;140269;-65
2023/08/28 16:52:34;;;;;;;12.70;8.00;;;;;;;22.69;75.58;98145.88;221683;183;146350;-64
2023/08/28 16:57:39;;;;;;;11.90;4.60;;;;;;;22.77;74.66;98143.52;221559;183;139280;-65
2023/08/28 17:02:45;;;;;;;15.40;4.80;;;;;;;22.59;74.61;98141.98;221898;181;138471;-64
2023/08/28 17:07:52;;;;;;;10.80;4.80;;;;;;;22.51;75.18;98147.61;221696;181;145832;-65
2023/08/28 17:12:56;;;;;;;9.20;5.00;;;;;;;22.46;75.60;98150.95;221850;182;140091;-66
2023/08/28 17:18:01;;;;;;;9.60;4.10;;;;;;;22.41;75.73;98144.55;221826;182;137284;-64
2023/08/28 17:23:06;;;;;;;9.00;4.30;;;;;;;22.39;75.85;98144.66;221786;182;146365;-66
2023/08/28 17:28:11;;;;;;;8.80;4.60;;;;;;;22.35;76.30;98140.86;221655;182;138735;-64
2023/08/28 17:33:17;;;;;;;12.10;4.80;;;;;;;22.31;76.71;98140.81;221777;181;136919;-65
2023/08/28 17:38:21;;;;;;;10.40;4.40;;;;;;;22.27;76.84;98140.52;221786;181;147411;-66
2023/08/28 17:43:28;;;;;;;8.40;3.80;;;;;;;22.16;77.12;98136.05;221633;182;140894;-65
2023/08/28 17:48:35;;;;;;;8.00;4.40;;;;;;;22.06;77.63;98140.54;221807;182;138640;-67
2023/08/28 17:53:40;;;;;;;8.80;3.80;;;;;;;22.01;77.96;98143.48;221671;182;145899;-67
2023/08/28 17:58:44;;;;;;;;;;;;;;;21.99;78.12;98149.05;221792;181;139776;-65
2023/08/28 18:03:49;;;;;;;8.80;4.40;;;;;;;21.96;78.35;98145.01;221827;182;131209;-65
2023/08/28 18:08:53;;;;;;;8.30;3.70;;;;;;;21.90;78.61;98149.23;221705;181;146084;-68
2023/08/28 18:13:58;;;;;;;8.60;3.90;;;;;;;21.85;78.98;98152.38;221780;182;140810;-65
2023/08/28 18:19:02;;;;;;;;;;;;;;;21.84;79.17;98146.33;221900;181;136962;-65
2023/08/28 18:24:07;;;;;;;6.10;4.20;;;;;;;22.06;81.04;98142.67;221855;182;146033;-65
2023/08/28 18:29:13;;;;;;;7.10;3.90;;;;;;;22.53;79.73;98134.65;221793;181;139843;-67
2023/08/28 18:34:17;;;;;;;5.40;3.90;;;;;;;22.71;79.01;98143.63;221798;182;140045;-64
2023/08/28 18:39:22;;;;;;;5.40;4.10;;;;;;;22.81;78.13;98140.31;221838;182;145667;-64
2023/08/28 18:44:28;;;;;;;7.80;4.00;;;;;;;22.94;77.82;98137.55;221817;182;138863;-64
2023/08/28 18:49:32;;;;;;;7.10;4.70;;;;;;;23.14;77.80;98129.41;221829;182;137642;-62
2023/08/28 18:54:37;;;;;;;10.50;4.50;;;;;;;23.23;76.98;98120.64;221903;181;145949;-63
2023/08/28 18:59:43;;;;;;;12.30;5.00;;;;;;;23.26;76.80;98116.09;221788;182;139529;-63
2023/08/28 19:04:47;;;;;;;7.80;4.80;;;;;;;23.28;76.32;98107.38;221793;182;138854;-65
2023/08/28 19:09:52;;;;;;;8.00;5.10;;;;;;;23.30;76.20;98094.89;221721;182;145530;-64
2023/08/28 19:14:57;;;;;;;7.00;4.10;;;;;;;23.41;75.78;98092.45;221704;181;139067;-63
2023/08/28 19:20:04;;;;;;;12.00;4.30;;;;;;;23.40;74.94;98080.83;221902;181;137140;-62
2023/08/28 19:25:09;;;;;;;6.50;4.00;;;;;;;23.38;74.95;98066.98;221912;182;147311;-63
2023/08/28 19:30:14;;;;;;;6.60;4.50;;;;;;;23.36;74.36;98064.43;221830;181;138681;-62
2023/08/28 19:35:20;;;;;;;5.10;4.10;;;;;;;23.42;74.47;98064.21;221877;182;137377;-62
2023/08/28 19:40:24;;;;;;;5.80;4.20;;;;;;;23.50;73.90;98053.55;221887;181;145884;-62
2023/08/28 19:45:30;;;;;;;5.40;4.30;;;;;;;23.51;73.84;98038.23;221722;182;139326;-63
2023/08/28 19:50:36;;;;;;;6.60;4.30;;;;;;;23.55;73.44;98025.62;221793;181;136893;-60
2023/08/28 19:55:41;;;;;;;6.20;4.20;;;;;;;23.48;73.24;98011.36;221791;181;147675;-61
2023/08/28 20:00:47;;;;;;;6.30;4.40;;;;;;;23.32;72.82;98005.05;221834;182;140062;-64
2023/08/28 20:05:52;;;;;;;;;;;;;;;23.13;73.11;97998.33;221754;183;138771;-63
2023/08/28 20:10:57;;;;;;;7.80;5.60;;;;;;;22.94;72.97;97990.73;221756;183;147476;-62
2023/08/28 20:16:02;;;;;;;6.60;5.00;;;;;;;22.75;73.44;97994.55;221825;182;138929;-60
2023/08/28 20:21:07;;;;;;;8.20;5.50;;;;;;;22.61;73.88;97992.61;221898;182;137582;-64
2023/08/28 20:26:12;;;;;;;8.50;4.50;;;;;;;22.47;74.38;97993.02;221797;178;147028;-63
2023/08/28 20:31:17;;;;;;;6.60;4.60;;;;;;;22.37;74.89;97995.35;221949;181;140129;-63
2023/08/28 20:36:22;;;;;;;6.40;4.80;;;;;;;22.36;75.09;97989.50;221913;181;139376;-64
2023/08/28 20:41:28;;;;;;;9.30;5.70;;;;;;;22.36;75.21;97979.87;221805;181;145743;-62
2023/08/28 20:46:39;;;;;;;7.30;5.20;;;;;;;22.31;75.21;97978.38;221836;181;139787;-64
2023/08/28 20:51:43;;;;;;;16.10;5.70;;;;;;;22.25;75.40;97971.40;221801;181;137374;-63
2023/08/28 20:56:48;;;;;;;6.80;5.10;;;;;;;22.22;75.68;97954.31;221894;181;146471;-63
2023/08/28 21:01:53;;;;;;;8.50;5.00;;;;;;;22.18;75.94;97934.89;221853;181;140716;-64
2023/08/28 21:06:57;;;;;;;8.00;5.40;;;;;;;22.19;75.97;97922.61;221881;182;138898;-63
2023/08/28 21:12:01;;;;;;;7.20;5.30;;;;;;;22.20;76.06;97913.32;221829;182;146722;-60
2023/08/28 21:17:07;;;;;;;7.60;5.90;;;;;;;22.19;76.10;97915.27;221711;182;139095;-61
2023/08/28 21:22:10;;;;;;;9.90;6.40;;;;;;;22.18;76.00;97903.55;221786;182;137992;-63
2023/08/28 21:27:16;;;;;;;;;;;;;;;22.17;76.33;97891.11;221749;181;147299;-63
2023/08/28 21:32:23;;;;;;;11.20;6.50;;;;;;;22.16;76.48;97899.15;221810;182;139075;-62
2023/08/28 21:37:28;;;;;;;14.70;7.10;;;;;;;22.21;76.52;97903.81;221785;181;138520;-63
2023/08/28 21:42:33;;;;;;;11.90;8.20;;;;;;;22.25;76.44;97914.48;221854;182;145807;-63
2023/08/28 21:47:38;;;;;;;12.00;8.30;;;;;;;22.25;76.28;97914.49;221899;181;140503;-62
2023/08/28 21:53:03;;;;;;;12.30;7.90;;;;;;;22.23;76.49;97898.37;221943;182;137961;-63
2023/08/28 21:58:25;;;;;;;14.10;8.00;;;;;;;22.22;76.65;97890.11;221920;182;146403;-62
2023/08/28 22:03:50;;;;;;;14.50;8.10;;;;;;;22.21;76.68;97876.84;221783;181;139833;-61
2023/08/28 22:09:17;;;;;;;12.70;8.30;;;;;;;22.26;76.78;97883.30;221819;182;137673;-59
2023/08/28 22:14:48;;;;;;;14.20;8.10;;;;;;;22.32;76.65;97881.29;222017;182;146408;-61
2023/08/28 22:19:54;;;;;;;13.10;8.20;;;;;;;22.34;76.56;97883.09;221927;181;138970;-62
2023/08/28 22:24:59;;;;;;;10.00;6.90;;;;;;;22.33;76.77;97885.92;221960;182;138260;-61
2023/08/28 22:30:05;;;;;;;10.70;6.80;;;;;;;22.33;76.71;97879.42;221964;182;145585;-61
2023/08/28 22:35:10;;;;;;;11.20;7.20;;;;;;;22.39;76.74;97871.59;221898;182;139662;-64
2023/08/28 22:40:15;;;;;;;11.70;6.50;;;;;;;22.46;76.84;97860.04;221952;181;137339;-62
2023/08/28 22:45:19;;;;;;;;;;;;;;;22.51;76.56;97852.41;221950;181;146883;-61
2023/08/28 22:50:24;;;;;;;11.30;6.30;;;;;;;22.47;76.63;97856.70;221891;182;138974;-60
2023/08/28 22:55:28;;;;;;;8.90;5.90;;;;;;;22.41;76.93;97846.23;221800;182;137746;-61
2023/08/28 23:00:34;;;;;;;8.00;5.20;;;;;;;22.39;77.13;97841.60;221838;181;146372;-61
2023/08/28 23:05:47;;;;;;;8.20;5.40;;;;;;;22.42;77.20;97834.85;221687;182;138875;-63
2023/08/28 23:10:52;;;;;;;7.70;5.50;;;;;;;22.46;77.12;97834.95;221801;182;136748;-62
2023/08/28 23:15:56;;;;;;;8.30;5.60;;;;;;;22.49;77.11;97826.95;221803;181;146425;-62
2023/08/28 23:21:03;;;;;;;7.60;4.90;;;;;;;22.48;77.01;97821.28;221953;182;138710;-63
2023/08/28 23:26:07;;;;;;;6.90;4.20;;;;;;;22.48;77.17;97822.98;221803;182;138559;-62
2023/08/28 23:31:11;;;;;;;6.60;4.70;;;;;;;22.49;77.33;97821.58;221813;182;147279;-63
2023/08/28 23:36:15;;;;;;;6.40;4.90;;;;;;;22.52;77.31;97821.38;221743;182;139499;-61
2023/08/28 23:41:20;;;;;;;5.90;4.80;;;;;;;22.51;77.41;97822.75;221775;179;137514;-62
2023/08/28 23:46:25;;;;;;;5.70;4.30;;;;;;;22.46;77.44;97811.77;221718;182;145919;-62
2023/08/28 23:51:31;;;;;;;5.10;4.10;;;;;;;22.45;77.67;97811.34;221686;182;139084;-63
2023/08/28 23:56:36;;;;;;;12.50;4.70;;;;;;;22.47;77.79;97806.50;221776;182;137716;-63
